sensor_id;sensor_type;location;lat;lon;timestamp;P1;durP1;ratioP1;P2;durP2;ratioP2
1090;SDS011;534;48.704;9.122;2023-02-11T04:02:51;11.00;;;10.00;;
1090;SDS011;534;48.704;9.122;2023-02-11T04:05:17;12.00;;;10.70;;
1090;SDS011;534;48.704;9.122;2023-02-11T04:07:44;11.87;;;9.70;;
1090;SDS011;534;48.704;9.122;2023-02-11T04:10:11;11.90;;;10.70;;
1090;SDS011;534;48.704;9.122;2023-02-11T04:12:38;12.60;;;11.30;;
1090;SDS011;534;48.704;9.122;2023-02-11T04:15:05;10.60;;;9.57;;
1090;SDS011;534;48.704;9.122;2023-02-11T04:17:32;10.90;;;9.90;;
1090;SDS011;534;48.704;9.122;2023-02-11T04:20:00;11.10;;;9.90;;
1090;SDS011;534;48.704;9.122;2023-02-11T04:22:27;11.90;;;10.73;;
1090;SDS011;534;48.704;9.122;2023-02-11T04:24:54;12.77;;;11.47;;
1090;SDS011;534;48.704;9.122;2023-02-11T04:27:21;10.30;;;9.30;;
1090;SDS011;534;48.704;9.122;2023-02-11T04:29:48;11.53;;;10.33;;
1090;SDS011;534;48.704;9.122;2023-02-11T04:32:15;11.90;;;10.80;;
1090;SDS011;534;48.704;9.122;2023-02-11T04:34:41;10.23;;;9.20;;
1090;SDS011;534;48.704;9.122;2023-02-11T04:37:09;12.07;;;10.93;;
1090;SDS011;534;48.704;9.122;2023-02-11T04:39:36;12.00;;;10.87;;
1090;SDS011;534;48.704;9.122;2023-02-11T04:42:03;11.23;;;9.70;;
1090;SDS011;534;48.704;9.122;2023-02-11T04:44:30;10.90;;;9.80;;
1090;SDS011;534;48.704;9.122;2023-02-11T04:46:56;12.83;;;11.70;;
1090;SDS011;534;48.704;9.122;2023-02-11T04:49:23;9.67;;;8.73;;
1090;SDS011;534;48.704;9.122;2023-02-11T04:51:50;11.37;;;10.37;;
1090;SDS011;534;48.704;9.122;2023-02-11T04:54:18;10.70;;;9.70;;
1090;SDS011;534;48.704;9.122;2023-02-11T04:56:45;11.53;;;10.43;;
1090;SDS011;534;48.704;9.122;2023-02-11T04:59:13;10.97;;;9.90;;
1090;SDS011;534;48.704;9.122;2023-02-11T05:01:40;14.30;;;11.50;;
1090;SDS011;534;48.704;9.122;2023-02-11T05:04:07;12.13;;;10.93;;
1090;SDS011;534;48.704;9.122;2023-02-11T05:06:34;11.43;;;10.33;;
1090;SDS011;534;48.704;9.122;2023-02-11T05:09:02;10.57;;;9.47;;
1090;SDS011;534;48.704;9.122;2023-02-11T05:11:30;10.90;;;9.90;;
1090;SDS011;534;48.704;9.122;2023-02-11T05:13:57;11.80;;;10.60;;
1090;SDS011;534;48.704;9.122;2023-02-11T05:16:24;11.37;;;10.27;;
1090;SDS011;534;48.704;9.122;2023-02-11T05:18:51;11.03;;;10.03;;
1090;SDS011;534;48.704;9.122;2023-02-11T05:21:19;11.47;;;10.33;;
1090;SDS011;534;48.704;9.122;2023-02-11T05:23:46;10.60;;;9.60;;
1090;SDS011;534;48.704;9.122;2023-02-11T05:26:13;11.30;;;10.20;;
1090;SDS011;534;48.704;9.122;2023-02-11T05:28:42;11.33;;;10.13;;
1090;SDS011;534;48.704;9.122;2023-02-11T05:31:09;11.93;;;10.50;;
1090;SDS011;534;48.704;9.122;2023-02-11T05:33:36;10.00;;;9.00;;
1090;SDS011;534;48.704;9.122;2023-02-11T05:36:03;10.90;;;9.80;;
1090;SDS011;534;48.704;9.122;2023-02-11T05:38:32;10.60;;;9.60;;
1090;SDS011;534;48.704;9.122;2023-02-11T05:40:59;11.27;;;10.03;;
1090;SDS011;534;48.704;9.122;2023-02-11T05:43:26;10.40;;;9.33;;
1090;SDS011;534;48.704;9.122;2023-02-11T05:45:54;10.03;;;9.03;;
1090;SDS011;534;48.704;9.122;2023-02-11T05:48:21;10.53;;;9.53;;
1090;SDS011;534;48.704;9.122;2023-02-11T05:50:48;11.47;;;10.23;;
1090;SDS011;534;48.704;9.122;2023-02-11T05:53:15;11.17;;;9.77;;
1090;SDS011;534;48.704;9.122;2023-02-11T05:55:41;10.30;;;9.20;;
1090;SDS011;534;48.704;9.122;2023-02-11T05:58:08;10.50;;;9.50;;
1090;SDS011;534;48.704;9.122;2023-02-11T06:00:35;10.40;;;9.50;;
1090;SDS011;534;48.704;9.122;2023-02-11T06:03:03;9.67;;;8.77;;
1090;SDS011;534;48.704;9.122;2023-02-11T06:05:30;9.73;;;8.73;;
1090;SDS011;534;48.704;9.122;2023-02-11T06:07:57;12.53;;;9.17;;
1090;SDS011;534;48.704;9.122;2023-02-11T06:10:25;11.17;;;9.70;;
1090;SDS011;534;48.704;9.122;2023-02-11T06:12:51;9.40;;;7.87;;
1090;SDS011;534;48.704;9.122;2023-02-11T06:15:18;9.03;;;8.13;;
1090;SDS011;534;48.704;9.122;2023-02-11T06:17:45;10.47;;;9.47;;
1090;SDS011;534;48.704;9.122;2023-02-11T06:20:13;9.23;;;8.43;;
1090;SDS011;534;48.704;9.122;2023-02-11T06:22:40;9.40;;;8.50;;
1090;SDS011;534;48.704;9.122;2023-02-11T06:25:07;10.10;;;9.10;;
1090;SDS011;534;48.704;9.122;2023-02-11T06:27:34;9.97;;;9.07;;
1090;SDS011;534;48.704;9.122;2023-02-11T06:30:02;11.07;;;10.07;;
1090;SDS011;534;48.704;9.122;2023-02-11T06:32:29;11.13;;;10.13;;
1090;SDS011;534;48.704;9.122;2023-02-11T06:34:56;12.20;;;10.97;;
1090;SDS011;534;48.704;9.122;2023-02-11T06:37:24;10.90;;;9.87;;
1090;SDS011;534;48.704;9.122;2023-02-11T06:39:51;10.90;;;9.80;;
1090;SDS011;534;48.704;9.122;2023-02-11T06:42:17;11.00;;;10.00;;
1090;SDS011;534;48.704;9.122;2023-02-11T06:44:44;9.63;;;8.73;;
1090;SDS011;534;48.704;9.122;2023-02-11T06:47:11;8.67;;;7.87;;
1090;SDS011;534;48.704;9.122;2023-02-11T06:49:38;8.83;;;7.93;;
1090;SDS011;534;48.704;9.122;2023-02-11T06:52:05;8.40;;;7.07;;
1090;SDS011;534;48.704;9.122;2023-02-11T06:54:33;8.77;;;7.93;;
1090;SDS011;534;48.704;9.122;2023-02-11T06:56:59;8.80;;;7.90;;
1090;SDS011;534;48.704;9.122;2023-02-11T06:59:26;8.70;;;7.87;;
1090;SDS011;534;48.704;9.122;2023-02-11T07:01:53;8.30;;;7.60;;
1090;SDS011;534;48.704;9.122;2023-02-11T07:04:19;8.50;;;7.47;;
1090;SDS011;534;48.704;9.122;2023-02-11T07:06:46;8.33;;;7.53;;
1090;SDS011;534;48.704;9.122;2023-02-11T07:09:13;9.13;;;8.33;;
1090;SDS011;534;48.704;9.122;2023-02-11T07:11:41;8.23;;;7.43;;
1090;SDS011;534;48.704;9.122;2023-02-11T07:14:08;8.10;;;7.33;;
1090;SDS011;534;48.704;9.122;2023-02-11T07:16:37;8.47;;;7.40;;
1090;SDS011;534;48.704;9.122;2023-02-11T07:19:05;9.43;;;8.53;;
1090;SDS011;534;48.704;9.122;2023-02-11T07:21:31;11.17;;;10.07;;
1090;SDS011;534;48.704;9.122;2023-02-11T07:23:58;10.10;;;9.00;;
1090;SDS011;534;48.704;9.122;2023-02-11T07:26:25;10.70;;;9.70;;
1090;SDS011;534;48.704;9.122;2023-02-11T07:28:54;9.70;;;8.80;;
1090;SDS011;534;48.704;9.122;2023-02-11T07:31:21;10.23;;;9.27;;
1090;SDS011;534;48.704;9.122;2023-02-11T07:33:50;9.77;;;8.10;;
1090;SDS011;534;48.704;9.122;2023-02-11T07:36:17;9.37;;;8.47;;
1090;SDS011;534;48.704;9.122;2023-02-11T07:38:44;9.30;;;8.50;;
1090;SDS011;534;48.704;9.122;2023-02-11T07:41:12;8.93;;;8.10;;
1090;SDS011;534;48.704;9.122;2023-02-11T07:43:40;9.83;;;8.73;;
1090;SDS011;534;48.704;9.122;2023-02-11T07:46:10;9.90;;;9.00;;
1090;SDS011;534;48.704;9.122;2023-02-11T07:48:38;10.77;;;9.00;;
1090;SDS011;534;48.704;9.122;2023-02-11T07:51:05;9.47;;;8.23;;
1090;SDS011;534;48.704;9.122;2023-02-11T07:53:33;10.30;;;9.37;;
1090;SDS011;534;48.704;9.122;2023-02-11T07:56:00;10.37;;;9.00;;
1090;SDS011;534;48.704;9.122;2023-02-11T07:58:28;9.43;;;8.53;;
1090;SDS011;534;48.704;9.122;2023-02-11T08:00:55;9.03;;;8.13;;
1090;SDS011;534;48.704;9.122;2023-02-11T08:03:27;9.17;;;8.37;;
1090;SDS011;534;48.704;9.122;2023-02-11T08:05:54;9.57;;;8.67;;
1090;SDS011;534;48.704;9.122;2023-02-11T08:08:21;8.73;;;7.70;;
1090;SDS011;534;48.704;9.122;2023-02-11T08:10:47;8.97;;;8.07;;
1090;SDS011;534;48.704;9.122;2023-02-11T08:13:14;9.53;;;8.63;;
1090;SDS011;534;48.704;9.122;2023-02-11T08:15:41;10.47;;;8.50;;
1090;SDS011;534;48.704;9.122;2023-02-11T08:18:07;10.40;;;9.43;;
1090;SDS011;534;48.704;9.122;2023-02-11T08:20:35;9.27;;;8.33;;
1090;SDS011;534;48.704;9.122;2023-02-11T08:23:02;9.73;;;8.67;;
1090;SDS011;534;48.704;9.122;2023-02-11T08:25:31;8.90;;;8.10;;
1090;SDS011;534;48.704;9.122;2023-02-11T08:27:57;8.40;;;7.60;;
1090;SDS011;534;48.704;9.122;2023-02-11T08:30:24;10.63;;;8.87;;
1090;SDS011;534;48.704;9.122;2023-02-11T08:32:51;13.60;;;8.30;;
1090;SDS011;534;48.704;9.122;2023-02-11T08:35:17;9.70;;;8.80;;
1090;SDS011;534;48.704;9.122;2023-02-11T08:37:45;9.93;;;8.47;;
1090;SDS011;534;48.704;9.122;2023-02-11T08:40:12;9.03;;;8.13;;
1090;SDS011;534;48.704;9.122;2023-02-11T08:42:39;8.07;;;7.27;;
1090;SDS011;534;48.704;9.122;2023-02-11T08:45:06;9.20;;;8.20;;
1090;SDS011;534;48.704;9.122;2023-02-11T08:47:34;8.57;;;7.70;;
1090;SDS011;534;48.704;9.122;2023-02-11T08:50:01;8.70;;;7.80;;
1090;SDS011;534;48.704;9.122;2023-02-11T08:52:28;8.17;;;7.40;;
1090;SDS011;534;48.704;9.122;2023-02-11T08:54:56;9.10;;;8.23;;
1090;SDS011;534;48.704;9.122;2023-02-11T08:57:22;8.60;;;7.70;;
1090;SDS011;534;48.704;9.122;2023-02-11T08:59:49;7.00;;;6.30;;
1090;SDS011;534;48.704;9.122;2023-02-11T09:02:16;7.70;;;7.00;;
1090;SDS011;534;48.704;9.122;2023-02-11T09:04:42;7.73;;;6.93;;
1090;SDS011;534;48.704;9.122;2023-02-11T09:07:09;6.80;;;6.20;;
1090;SDS011;534;48.704;9.122;2023-02-11T09:09:36;8.13;;;7.33;;
1090;SDS011;534;48.704;9.122;2023-02-11T09:12:04;7.30;;;6.20;;
1090;SDS011;534;48.704;9.122;2023-02-11T09:14:31;7.33;;;6.63;;
1090;SDS011;534;48.704;9.122;2023-02-11T09:16:58;6.73;;;6.03;;
1090;SDS011;534;48.704;9.122;2023-02-11T09:19:24;7.37;;;6.33;;
1090;SDS011;534;48.704;9.122;2023-02-11T09:21:51;6.00;;;5.50;;
1090;SDS011;534;48.704;9.122;2023-02-11T09:24:18;8.57;;;6.03;;
1090;SDS011;534;48.704;9.122;2023-02-11T09:26:44;6.07;;;5.47;;
1090;SDS011;534;48.704;9.122;2023-02-11T09:29:12;7.17;;;6.47;;
1090;SDS011;534;48.704;9.122;2023-02-11T09:31:39;6.43;;;5.80;;
1090;SDS011;534;48.704;9.122;2023-02-11T09:34:06;6.30;;;5.33;;
1090;SDS011;534;48.704;9.122;2023-02-11T09:36:33;7.40;;;6.70;;
1090;SDS011;534;48.704;9.122;2023-02-11T09:39:02;6.27;;;5.67;;
1090;SDS011;534;48.704;9.122;2023-02-11T09:44:35;7.10;;;6.27;;
1090;SDS011;534;48.704;9.122;2023-02-11T09:47:03;6.33;;;5.73;;
1090;SDS011;534;48.704;9.122;2023-02-11T09:49:33;6.20;;;5.60;;
1090;SDS011;534;48.704;9.122;2023-02-11T09:52:05;6.97;;;5.93;;
1090;SDS011;534;48.704;9.122;2023-02-11T09:54:40;6.80;;;6.20;;
1090;SDS011;534;48.704;9.122;2023-02-11T09:57:14;7.67;;;6.87;;
1090;SDS011;534;48.704;9.122;2023-02-11T09:59:42;6.57;;;5.97;;
1090;SDS011;534;48.704;9.122;2023-02-11T10:02:10;8.07;;;7.20;;
1090;SDS011;534;48.704;9.122;2023-02-11T10:04:46;7.30;;;6.43;;
1090;SDS011;534;48.704;9.122;2023-02-11T10:07:29;5.80;;;5.30;;
1090;SDS011;534;48.704;9.122;2023-02-11T10:10:06;6.87;;;6.07;;
1090;SDS011;534;48.704;9.122;2023-02-11T10:12:46;6.60;;;6.00;;
1090;SDS011;534;48.704;9.122;2023-02-11T10:15:27;7.07;;;6.30;;
1090;SDS011;534;48.704;9.122;2023-02-11T10:18:06;7.37;;;6.77;;
1090;SDS011;534;48.704;9.122;2023-02-11T10:20:44;6.20;;;5.60;;
1090;SDS011;534;48.704;9.122;2023-02-11T10:23:14;11.90;;;6.10;;
1090;SDS011;534;48.704;9.122;2023-02-11T10:25:45;6.40;;;5.80;;
1090;SDS011;534;48.704;9.122;2023-02-11T10:28:15;6.30;;;5.70;;
1090;SDS011;534;48.704;9.122;2023-02-11T10:30:48;5.73;;;5.10;;
1090;SDS011;534;48.704;9.122;2023-02-11T10:33:22;6.77;;;5.90;;
1090;SDS011;534;48.704;9.122;2023-02-11T10:35:52;6.60;;;5.87;;
1090;SDS011;534;48.704;9.122;2023-02-11T10:38:19;8.33;;;6.90;;
1090;SDS011;534;48.704;9.122;2023-02-11T10:40:46;5.70;;;5.20;;
1090;SDS011;534;48.704;9.122;2023-02-11T10:43:13;8.40;;;5.83;;
1090;SDS011;534;48.704;9.122;2023-02-11T10:45:42;9.93;;;6.03;;
1090;SDS011;534;48.704;9.122;2023-02-11T10:51:06;7.30;;;6.50;;
1090;SDS011;534;48.704;9.122;2023-02-11T10:53:38;7.00;;;6.30;;
1090;SDS011;534;48.704;9.122;2023-02-11T10:56:06;6.30;;;5.80;;
1090;SDS011;534;48.704;9.122;2023-02-11T10:58:43;6.30;;;5.60;;
1090;SDS011;534;48.704;9.122;2023-02-11T11:01:12;5.80;;;5.20;;
1090;SDS011;534;48.704;9.122;2023-02-11T11:03:39;5.93;;;5.33;;
1090;SDS011;534;48.704;9.122;2023-02-11T11:06:12;6.00;;;5.40;;
1090;SDS011;534;48.704;9.122;2023-02-11T11:11:30;6.57;;;5.87;;
1090;SDS011;534;48.704;9.122;2023-02-11T11:13:58;5.70;;;5.20;;
1090;SDS011;534;48.704;9.122;2023-02-11T11:16:27;5.77;;;5.23;;
1090;SDS011;534;48.704;9.122;2023-02-11T11:21:47;5.93;;;4.60;;
1090;SDS011;534;48.704;9.122;2023-02-11T11:24:16;5.30;;;4.70;;
1090;SDS011;534;48.704;9.122;2023-02-11T11:26:45;5.60;;;5.10;;
1090;SDS011;534;48.704;9.122;2023-02-11T11:29:14;5.23;;;4.47;;
1090;SDS011;534;48.704;9.122;2023-02-11T11:31:48;5.50;;;5.00;;
1090;SDS011;534;48.704;9.122;2023-02-11T11:34:20;6.10;;;5.40;;
1090;SDS011;534;48.704;9.122;2023-02-11T11:36:52;5.07;;;4.57;;
1090;SDS011;534;48.704;9.122;2023-02-11T11:39:21;5.77;;;5.27;;
1090;SDS011;534;48.704;9.122;2023-02-11T11:41:51;6.07;;;5.50;;
1090;SDS011;534;48.704;9.122;2023-02-11T11:44:29;5.77;;;5.17;;
1090;SDS011;534;48.704;9.122;2023-02-11T11:47:20;5.17;;;4.67;;
1090;SDS011;534;48.704;9.122;2023-02-11T11:49:54;6.40;;;5.20;;
1090;SDS011;534;48.704;9.122;2023-02-11T11:52:40;5.10;;;4.60;;
1090;SDS011;534;48.704;9.122;2023-02-11T11:55:19;6.03;;;5.23;;
1090;SDS011;534;48.704;9.122;2023-02-11T11:57:48;5.97;;;5.43;;
1090;SDS011;534;48.704;9.122;2023-02-11T12:00:16;5.90;;;5.23;;
1090;SDS011;534;48.704;9.122;2023-02-11T12:03:03;6.37;;;5.73;;
1090;SDS011;534;48.704;9.122;2023-02-11T12:05:49;5.70;;;5.10;;
1090;SDS011;534;48.704;9.122;2023-02-11T12:08:22;5.27;;;4.77;;
1090;SDS011;534;48.704;9.122;2023-02-11T12:11:01;6.37;;;5.70;;
1090;SDS011;534;48.704;9.122;2023-02-11T12:13:38;5.20;;;4.70;;
1090;SDS011;534;48.704;9.122;2023-02-11T12:16:14;5.57;;;4.70;;
1090;SDS011;534;48.704;9.122;2023-02-11T12:21:59;6.80;;;4.70;;
1090;SDS011;534;48.704;9.122;2023-02-11T12:24:36;6.03;;;4.90;;
1090;SDS011;534;48.704;9.122;2023-02-11T12:27:12;5.17;;;4.67;;
1090;SDS011;534;48.704;9.122;2023-02-11T12:29:47;6.00;;;5.40;;
1090;SDS011;534;48.704;9.122;2023-02-11T12:32:25;5.10;;;4.60;;
1090;SDS011;534;48.704;9.122;2023-02-11T12:41:18;4.50;;;4.10;;
1090;SDS011;534;48.704;9.122;2023-02-11T12:44:11;4.63;;;3.63;;
1090;SDS011;534;48.704;9.122;2023-02-11T12:46:51;4.80;;;4.30;;
1090;SDS011;534;48.704;9.122;2023-02-11T12:49:28;3.60;;;3.30;;
1090;SDS011;534;48.704;9.122;2023-02-11T12:52:12;5.27;;;3.80;;
1090;SDS011;534;48.704;9.122;2023-02-11T12:54:48;3.73;;;3.20;;
1090;SDS011;534;48.704;9.122;2023-02-11T12:57:21;4.57;;;4.00;;
1090;SDS011;534;48.704;9.122;2023-02-11T12:59:52;5.83;;;5.10;;
1090;SDS011;534;48.704;9.122;2023-02-11T13:02:27;9.50;;;5.13;;
1090;SDS011;534;48.704;9.122;2023-02-11T13:04:59;5.30;;;4.70;;
1090;SDS011;534;48.704;9.122;2023-02-11T13:07:34;5.30;;;4.80;;
1090;SDS011;534;48.704;9.122;2023-02-11T13:10:04;5.67;;;4.73;;
1090;SDS011;534;48.704;9.122;2023-02-11T13:12:42;5.23;;;4.73;;
1090;SDS011;534;48.704;9.122;2023-02-11T13:15:27;5.67;;;5.00;;
1090;SDS011;534;48.704;9.122;2023-02-11T13:17:55;6.30;;;4.63;;
1090;SDS011;534;48.704;9.122;2023-02-11T13:20:30;4.43;;;3.83;;
1090;SDS011;534;48.704;9.122;2023-02-11T13:23:06;4.00;;;3.60;;
1090;SDS011;534;48.704;9.122;2023-02-11T13:25:43;4.90;;;4.50;;
1090;SDS011;534;48.704;9.122;2023-02-11T13:31:07;4.77;;;4.03;;
1090;SDS011;534;48.704;9.122;2023-02-11T13:33:36;4.10;;;3.70;;
1090;SDS011;534;48.704;9.122;2023-02-11T13:36:17;4.10;;;3.40;;
1090;SDS011;534;48.704;9.122;2023-02-11T13:38:53;4.33;;;3.90;;
1090;SDS011;534;48.704;9.122;2023-02-11T13:41:27;7.20;;;3.50;;
1090;SDS011;534;48.704;9.122;2023-02-11T13:43:57;4.90;;;3.30;;
1090;SDS011;534;48.704;9.122;2023-02-11T13:46:26;3.90;;;3.50;;
1090;SDS011;534;48.704;9.122;2023-02-11T13:48:55;4.00;;;2.87;;
1090;SDS011;534;48.704;9.122;2023-02-11T13:54:17;3.30;;;2.97;;
1090;SDS011;534;48.704;9.122;2023-02-11T13:59:47;4.60;;;4.10;;
1090;SDS011;534;48.704;9.122;2023-02-11T14:02:22;5.03;;;3.53;;
1090;SDS011;534;48.704;9.122;2023-02-11T14:05:23;3.47;;;3.17;;
1090;SDS011;534;48.704;9.122;2023-02-11T14:08:12;3.50;;;2.90;;
1090;SDS011;534;48.704;9.122;2023-02-11T14:11:03;3.60;;;2.93;;
1090;SDS011;534;48.704;9.122;2023-02-11T14:13:35;3.93;;;2.87;;
1090;SDS011;534;48.704;9.122;2023-02-11T14:16:23;3.50;;;3.00;;
1090;SDS011;534;48.704;9.122;2023-02-11T14:18:57;3.90;;;3.37;;
1090;SDS011;534;48.704;9.122;2023-02-11T14:21:31;3.53;;;3.23;;
1090;SDS011;534;48.704;9.122;2023-02-11T14:27:04;5.60;;;5.10;;
1090;SDS011;534;48.704;9.122;2023-02-11T14:29:36;5.00;;;4.60;;
1090;SDS011;534;48.704;9.122;2023-02-11T14:32:09;5.30;;;4.80;;
1090;SDS011;534;48.704;9.122;2023-02-11T14:34:48;5.30;;;4.70;;
1090;SDS011;534;48.704;9.122;2023-02-11T14:37:24;4.53;;;4.10;;
1090;SDS011;534;48.704;9.122;2023-02-11T14:40:04;3.93;;;3.57;;
1090;SDS011;534;48.704;9.122;2023-02-11T14:42:41;4.50;;;4.10;;
1090;SDS011;534;48.704;9.122;2023-02-11T14:45:09;4.30;;;4.00;;
1090;SDS011;534;48.704;9.122;2023-02-11T14:47:43;4.50;;;4.10;;
1090;SDS011;534;48.704;9.122;2023-02-11T14:50:17;5.20;;;4.70;;
1090;SDS011;534;48.704;9.122;2023-02-11T14:52:47;5.10;;;4.60;;
1090;SDS011;534;48.704;9.122;2023-02-11T14:55:17;6.00;;;4.60;;
1090;SDS011;534;48.704;9.122;2023-02-11T14:58:07;5.47;;;4.97;;
1090;SDS011;534;48.704;9.122;2023-02-11T15:00:49;6.03;;;5.53;;
1090;SDS011;534;48.704;9.122;2023-02-11T15:03:26;6.57;;;6.00;;
1090;SDS011;534;48.704;9.122;2023-02-11T15:05:58;6.40;;;5.80;;
1090;SDS011;534;48.704;9.122;2023-02-11T15:08:28;6.57;;;5.97;;
1090;SDS011;534;48.704;9.122;2023-02-11T15:10:55;6.47;;;5.87;;
1090;SDS011;534;48.704;9.122;2023-02-11T15:13:23;7.10;;;6.40;;
1090;SDS011;534;48.704;9.122;2023-02-11T15:15:57;6.17;;;5.60;;
1090;SDS011;534;48.704;9.122;2023-02-11T15:18:30;6.00;;;5.47;;
1090;SDS011;534;48.704;9.122;2023-02-11T15:20:59;5.93;;;5.43;;
1090;SDS011;534;48.704;9.122;2023-02-11T15:23:27;6.70;;;5.60;;
1090;SDS011;534;48.704;9.122;2023-02-11T15:25:55;6.63;;;5.90;;
1090;SDS011;534;48.704;9.122;2023-02-11T15:28:23;5.93;;;5.33;;
1090;SDS011;534;48.704;9.122;2023-02-11T15:31:00;5.97;;;5.47;;
1090;SDS011;534;48.704;9.122;2023-02-11T15:33:29;5.23;;;4.73;;
1090;SDS011;534;48.704;9.122;2023-02-11T15:35:58;5.37;;;4.83;;
1090;SDS011;534;48.704;9.122;2023-02-11T15:38:25;4.67;;;4.10;;
1090;SDS011;534;48.704;9.122;2023-02-11T15:40:54;6.17;;;5.57;;
1090;SDS011;534;48.704;9.122;2023-02-11T15:43:22;6.27;;;5.77;;
1090;SDS011;534;48.704;9.122;2023-02-11T15:45:53;6.10;;;5.50;;
1090;SDS011;534;48.704;9.122;2023-02-11T15:48:28;5.70;;;5.10;;
1090;SDS011;534;48.704;9.122;2023-02-11T15:51:02;6.33;;;5.73;;
1090;SDS011;534;48.704;9.122;2023-02-11T15:53:35;6.03;;;5.03;;
1090;SDS011;534;48.704;9.122;2023-02-11T15:56:07;6.23;;;5.57;;
1090;SDS011;534;48.704;9.122;2023-02-11T15:58:38;6.23;;;5.63;;
1090;SDS011;534;48.704;9.122;2023-02-11T16:01:07;7.70;;;6.10;;
1090;SDS011;534;48.704;9.122;2023-02-11T16:03:37;6.63;;;6.03;;
1090;SDS011;534;48.704;9.122;2023-02-11T16:06:15;8.17;;;6.13;;
1090;SDS011;534;48.704;9.122;2023-02-11T16:08:54;6.43;;;5.83;;
1090;SDS011;534;48.704;9.122;2023-02-11T16:11:24;7.47;;;6.77;;
1090;SDS011;534;48.704;9.122;2023-02-11T16:13:53;7.53;;;6.53;;
1090;SDS011;534;48.704;9.122;2023-02-11T16:16:20;8.00;;;7.20;;
1090;SDS011;534;48.704;9.122;2023-02-11T16:18:50;7.53;;;6.83;;
1090;SDS011;534;48.704;9.122;2023-02-11T16:21:20;8.53;;;7.37;;
1090;SDS011;534;48.704;9.122;2023-02-11T16:23:55;6.90;;;6.20;;
1090;SDS011;534;48.704;9.122;2023-02-11T16:26:24;7.40;;;6.70;;
1090;SDS011;534;48.704;9.122;2023-02-11T16:29:01;6.87;;;6.27;;
1090;SDS011;534;48.704;9.122;2023-02-11T16:31:33;7.87;;;7.10;;
1090;SDS011;534;48.704;9.122;2023-02-11T16:34:03;6.77;;;6.17;;
1090;SDS011;534;48.704;9.122;2023-02-11T16:36:37;8.23;;;7.53;;
1090;SDS011;534;48.704;9.122;2023-02-11T16:39:03;8.30;;;7.50;;
1090;SDS011;534;48.704;9.122;2023-02-11T16:41:30;7.20;;;6.50;;
1090;SDS011;534;48.704;9.122;2023-02-11T16:43:56;7.90;;;7.10;;
1090;SDS011;534;48.704;9.122;2023-02-11T16:46:23;7.90;;;7.10;;
1090;SDS011;534;48.704;9.122;2023-02-11T16:48:51;7.60;;;6.90;;
1090;SDS011;534;48.704;9.122;2023-02-11T16:51:19;8.17;;;7.47;;
1090;SDS011;534;48.704;9.122;2023-02-11T16:53:46;8.37;;;7.57;;
1090;SDS011;534;48.704;9.122;2023-02-11T16:56:13;8.57;;;7.70;;
1090;SDS011;534;48.704;9.122;2023-02-11T16:58:41;8.20;;;7.40;;
1090;SDS011;534;48.704;9.122;2023-02-11T17:01:17;8.60;;;7.70;;
1090;SDS011;534;48.704;9.122;2023-02-11T17:03:57;7.97;;;7.20;;
1090;SDS011;534;48.704;9.122;2023-02-11T17:06:25;8.57;;;7.67;;
1090;SDS011;534;48.704;9.122;2023-02-11T17:08:52;7.43;;;6.73;;
1090;SDS011;534;48.704;9.122;2023-02-11T17:11:19;11.50;;;8.10;;
1090;SDS011;534;48.704;9.122;2023-02-11T17:13:45;10.20;;;8.30;;
1090;SDS011;534;48.704;9.122;2023-02-11T17:16:15;9.03;;;8.23;;
1090;SDS011;534;48.704;9.122;2023-02-11T17:18:42;9.17;;;7.73;;
1090;SDS011;534;48.704;9.122;2023-02-11T17:21:09;9.40;;;8.40;;
1090;SDS011;534;48.704;9.122;2023-02-11T17:23:37;8.60;;;7.77;;
1090;SDS011;534;48.704;9.122;2023-02-11T17:26:06;9.07;;;8.00;;
1090;SDS011;534;48.704;9.122;2023-02-11T17:28:33;8.67;;;7.87;;
1090;SDS011;534;48.704;9.122;2023-02-11T17:31:00;8.83;;;8.00;;
1090;SDS011;534;48.704;9.122;2023-02-11T17:33:31;9.87;;;8.80;;
1090;SDS011;534;48.704;9.122;2023-02-11T17:35:57;7.80;;;7.10;;
1090;SDS011;534;48.704;9.122;2023-02-11T17:38:24;8.60;;;7.70;;
1090;SDS011;534;48.704;9.122;2023-02-11T17:40:58;10.30;;;9.23;;
1090;SDS011;534;48.704;9.122;2023-02-11T17:43:26;8.40;;;7.53;;
1090;SDS011;534;48.704;9.122;2023-02-11T17:45:53;9.07;;;8.27;;
1090;SDS011;534;48.704;9.122;2023-02-11T17:48:20;9.17;;;8.30;;
1090;SDS011;534;48.704;9.122;2023-02-11T17:50:46;9.03;;;8.00;;
1090;SDS011;534;48.704;9.122;2023-02-11T17:53:13;8.73;;;7.90;;
1090;SDS011;534;48.704;9.122;2023-02-11T17:55:40;8.90;;;8.10;;
1090;SDS011;534;48.704;9.122;2023-02-11T17:58:08;8.77;;;7.97;;
1090;SDS011;534;48.704;9.122;2023-02-11T18:00:35;9.20;;;8.40;;
1090;SDS011;534;48.704;9.122;2023-02-11T18:03:02;9.33;;;8.43;;
1090;SDS011;534;48.704;9.122;2023-02-11T18:05:32;8.97;;;8.07;;
1090;SDS011;534;48.704;9.122;2023-02-11T18:07:59;9.43;;;7.90;;
1090;SDS011;534;48.704;9.122;2023-02-11T18:10:26;8.53;;;7.73;;
1090;SDS011;534;48.704;9.122;2023-02-11T18:12:53;9.20;;;8.30;;
1090;SDS011;534;48.704;9.122;2023-02-11T18:15:22;11.03;;;9.50;;
1090;SDS011;534;48.704;9.122;2023-02-11T18:17:49;9.80;;;8.80;;
1090;SDS011;534;48.704;9.122;2023-02-11T18:20:15;10.00;;;9.10;;
1090;SDS011;534;48.704;9.122;2023-02-11T18:22:42;10.83;;;9.77;;
1090;SDS011;534;48.704;9.122;2023-02-11T18:25:10;10.27;;;9.20;;
1090;SDS011;534;48.704;9.122;2023-02-11T18:27:39;10.67;;;9.73;;
1090;SDS011;534;48.704;9.122;2023-02-11T18:30:09;9.97;;;9.10;;
1090;SDS011;534;48.704;9.122;2023-02-11T18:32:43;9.60;;;8.80;;
1090;SDS011;534;48.704;9.122;2023-02-11T18:35:10;11.50;;;10.40;;
1090;SDS011;534;48.704;9.122;2023-02-11T18:37:38;9.70;;;8.90;;
1090;SDS011;534;48.704;9.122;2023-02-11T18:40:06;10.10;;;9.20;;
1090;SDS011;534;48.704;9.122;2023-02-11T18:42:33;10.87;;;9.97;;
1090;SDS011;534;48.704;9.122;2023-02-11T18:45:00;10.20;;;9.20;;
1090;SDS011;534;48.704;9.122;2023-02-11T18:47:27;9.80;;;8.90;;
1090;SDS011;534;48.704;9.122;2023-02-11T18:49:55;9.37;;;8.47;;
1090;SDS011;534;48.704;9.122;2023-02-11T18:52:22;10.23;;;9.30;;
1090;SDS011;534;48.704;9.122;2023-02-11T18:54:49;9.43;;;8.63;;
1090;SDS011;534;48.704;9.122;2023-02-11T18:57:16;9.27;;;8.47;;
1090;SDS011;534;48.704;9.122;2023-02-11T18:59:42;10.63;;;9.63;;
1090;SDS011;534;48.704;9.122;2023-02-11T19:02:09;10.63;;;9.53;;
1090;SDS011;534;48.704;9.122;2023-02-11T19:04:36;10.47;;;9.23;;
1090;SDS011;534;48.704;9.122;2023-02-11T19:07:04;10.70;;;9.77;;
1090;SDS011;534;48.704;9.122;2023-02-11T19:09:31;9.83;;;9.00;;
1090;SDS011;534;48.704;9.122;2023-02-11T19:11:58;11.70;;;9.57;;
1090;SDS011;534;48.704;9.122;2023-02-11T19:14:26;11.43;;;10.50;;
1090;SDS011;534;48.704;9.122;2023-02-11T19:16:56;11.83;;;10.73;;
1090;SDS011;534;48.704;9.122;2023-02-11T19:19:24;11.37;;;10.27;;
1090;SDS011;534;48.704;9.122;2023-02-11T19:21:53;12.10;;;10.90;;
1090;SDS011;534;48.704;9.122;2023-02-11T19:24:22;12.73;;;11.53;;
1090;SDS011;534;48.704;9.122;2023-02-11T19:26:50;11.20;;;10.17;;
1090;SDS011;534;48.704;9.122;2023-02-11T19:29:18;12.10;;;11.00;;
1090;SDS011;534;48.704;9.122;2023-02-11T19:31:45;15.10;;;13.60;;
1090;SDS011;534;48.704;9.122;2023-02-11T19:34:12;15.00;;;13.50;;
1090;SDS011;534;48.704;9.122;2023-02-11T19:36:40;13.93;;;12.63;;
1090;SDS011;534;48.704;9.122;2023-02-11T19:39:07;11.27;;;10.30;;
1090;SDS011;534;48.704;9.122;2023-02-11T19:41:36;12.10;;;10.90;;
1090;SDS011;534;48.704;9.122;2023-02-11T19:44:04;11.50;;;10.40;;
1090;SDS011;534;48.704;9.122;2023-02-11T19:46:32;9.60;;;8.70;;
1090;SDS011;534;48.704;9.122;2023-02-11T19:49:00;11.20;;;10.10;;
1090;SDS011;534;48.704;9.122;2023-02-11T19:51:29;10.77;;;9.77;;
1090;SDS011;534;48.704;9.122;2023-02-11T19:53:57;11.27;;;10.27;;
1090;SDS011;534;48.704;9.122;2023-02-11T19:56:25;9.97;;;9.03;;
1090;SDS011;534;48.704;9.122;2023-02-11T19:58:54;10.20;;;9.20;;
1090;SDS011;534;48.704;9.122;2023-02-11T20:01:22;11.70;;;10.70;;
1090;SDS011;534;48.704;9.122;2023-02-11T20:03:50;11.50;;;10.50;;
1090;SDS011;534;48.704;9.122;2023-02-11T20:06:19;10.07;;;8.87;;
1090;SDS011;534;48.704;9.122;2023-02-11T20:08:51;12.03;;;10.93;;
1090;SDS011;534;48.704;9.122;2023-02-11T20:11:19;11.07;;;10.07;;
1090;SDS011;534;48.704;9.122;2023-02-11T20:13:45;12.03;;;10.87;;
1090;SDS011;534;48.704;9.122;2023-02-11T20:16:15;11.63;;;10.60;;